METAR Data
IDs: Format: Raw Decoded Include TAF

Data at: 2120 UTC 23 Oct 2021

EYKA 232120Z 28007KT 250V310 CAVOK 03/01 Q1020